Terminal Aerodrome Forecast
Issued by NWS

Home | Current Version | Previous Version | Text Only | Print | Product List | Glossary Off
Versions: 1 2 3 4 5 6 7 8 9 10 11 12 13 14 15 16

000
FTUS43 KGRB 250520
TAFCWA
TAF
KCWA 250520Z 2506/2606 28005KT P6SM BKN140
     FM251600 26013G20KT P6SM SCT050 SCT250
     FM260100 28006KT P6SM SKC
      AMD LTD TO CLD VIS AND WIND TIL 251100=

USA.gov is the U.S. government's official web portal to all federal, state and local government web resources and services.